sensor_id;sensor_type;location;lat;lon;timestamp;P1;durP1;ratioP1;P2;durP2;ratioP2
44662;SDS011;30381;52.754;18.258;2023-02-08T00:00:49;51.20;;;19.60;;
44662;SDS011;30381;52.754;18.258;2023-02-08T00:03:24;46.60;;;17.30;;
44662;SDS011;30381;52.754;18.258;2023-02-08T00:05:52;42.60;;;16.90;;
44662;SDS011;30381;52.754;18.258;2023-02-08T00:08:18;39.30;;;15.80;;
44662;SDS011;30381;52.754;18.258;2023-02-08T00:10:44;39.80;;;16.40;;
44662;SDS011;30381;52.754;18.258;2023-02-08T00:13:10;49.20;;;18.10;;
44662;SDS011;30381;52.754;18.258;2023-02-08T00:15:40;44.90;;;16.50;;
44662;SDS011;30381;52.754;18.258;2023-02-08T00:18:07;40.50;;;17.10;;
44662;SDS011;30381;52.754;18.258;2023-02-08T00:20:34;42.60;;;17.30;;
44662;SDS011;30381;52.754;18.258;2023-02-08T00:23:00;42.20;;;16.40;;
44662;SDS011;30381;52.754;18.258;2023-02-08T00:25:27;38.20;;;15.40;;
44662;SDS011;30381;52.754;18.258;2023-02-08T00:27:53;32.70;;;13.00;;
44662;SDS011;30381;52.754;18.258;2023-02-08T00:30:19;40.70;;;14.50;;
44662;SDS011;30381;52.754;18.258;2023-02-08T00:32:45;37.40;;;15.50;;
44662;SDS011;30381;52.754;18.258;2023-02-08T00:35:11;35.60;;;14.70;;
44662;SDS011;30381;52.754;18.258;2023-02-08T00:37:38;36.50;;;14.30;;
44662;SDS011;30381;52.754;18.258;2023-02-08T00:40:04;43.90;;;16.80;;
44662;SDS011;30381;52.754;18.258;2023-02-08T00:42:30;38.90;;;16.30;;
44662;SDS011;30381;52.754;18.258;2023-02-08T00:44:57;40.40;;;16.30;;
44662;SDS011;30381;52.754;18.258;2023-02-08T00:47:23;45.60;;;18.90;;
44662;SDS011;30381;52.754;18.258;2023-02-08T00:49:50;34.40;;;17.00;;
44662;SDS011;30381;52.754;18.258;2023-02-08T00:52:16;46.70;;;18.80;;
44662;SDS011;30381;52.754;18.258;2023-02-08T00:54:43;41.50;;;18.70;;
44662;SDS011;30381;52.754;18.258;2023-02-08T00:57:09;57.60;;;20.90;;
44662;SDS011;30381;52.754;18.258;2023-02-08T00:59:35;48.40;;;19.80;;
44662;SDS011;30381;52.754;18.258;2023-02-08T01:02:01;57.50;;;22.10;;
44662;SDS011;30381;52.754;18.258;2023-02-08T01:04:27;51.70;;;19.70;;
44662;SDS011;30381;52.754;18.258;2023-02-08T01:07:07;55.50;;;21.00;;
44662;SDS011;30381;52.754;18.258;2023-02-08T01:09:33;58.30;;;20.60;;
44662;SDS011;30381;52.754;18.258;2023-02-08T01:12:00;60.10;;;22.90;;
44662;SDS011;30381;52.754;18.258;2023-02-08T01:14:26;60.30;;;25.60;;
44662;SDS011;30381;52.754;18.258;2023-02-08T01:16:53;58.50;;;23.20;;
44662;SDS011;30381;52.754;18.258;2023-02-08T01:19:19;56.50;;;23.40;;
44662;SDS011;30381;52.754;18.258;2023-02-08T01:21:45;52.30;;;22.60;;
44662;SDS011;30381;52.754;18.258;2023-02-08T01:24:13;61.50;;;24.40;;
44662;SDS011;30381;52.754;18.258;2023-02-08T01:26:40;66.80;;;25.10;;
44662;SDS011;30381;52.754;18.258;2023-02-08T01:29:06;64.60;;;26.30;;
44662;SDS011;30381;52.754;18.258;2023-02-08T01:31:34;60.30;;;23.30;;
44662;SDS011;30381;52.754;18.258;2023-02-08T01:34:02;57.00;;;23.30;;
44662;SDS011;30381;52.754;18.258;2023-02-08T01:36:30;46.70;;;20.00;;
44662;SDS011;30381;52.754;18.258;2023-02-08T01:38:57;48.50;;;20.70;;
44662;SDS011;30381;52.754;18.258;2023-02-08T01:41:26;48.30;;;19.60;;
44662;SDS011;30381;52.754;18.258;2023-02-08T01:46:39;42.00;;;19.70;;
44662;SDS011;30381;52.754;18.258;2023-02-08T01:49:09;42.70;;;18.80;;
44662;SDS011;30381;52.754;18.258;2023-02-08T01:51:41;47.20;;;20.30;;
44662;SDS011;30381;52.754;18.258;2023-02-08T01:54:13;49.00;;;20.60;;
44662;SDS011;30381;52.754;18.258;2023-02-08T01:56:41;48.30;;;20.80;;
44662;SDS011;30381;52.754;18.258;2023-02-08T01:59:16;54.60;;;22.40;;
44662;SDS011;30381;52.754;18.258;2023-02-08T02:01:45;53.30;;;21.60;;
44662;SDS011;30381;52.754;18.258;2023-02-08T02:04:15;54.60;;;22.60;;
44662;SDS011;30381;52.754;18.258;2023-02-08T02:06:42;50.00;;;20.40;;
44662;SDS011;30381;52.754;18.258;2023-02-08T02:12:00;43.00;;;19.40;;
44662;SDS011;30381;52.754;18.258;2023-02-08T02:14:27;44.70;;;20.40;;
44662;SDS011;30381;52.754;18.258;2023-02-08T02:16:53;45.50;;;20.00;;
44662;SDS011;30381;52.754;18.258;2023-02-08T02:19:31;41.10;;;19.90;;
44662;SDS011;30381;52.754;18.258;2023-02-08T02:30:59;44.30;;;20.70;;
44662;SDS011;30381;52.754;18.258;2023-02-08T02:33:42;47.60;;;22.90;;
44662;SDS011;30381;52.754;18.258;2023-02-08T02:41:56;41.80;;;19.20;;
44662;SDS011;30381;52.754;18.258;2023-02-08T02:44:57;40.20;;;18.90;;
44662;SDS011;30381;52.754;18.258;2023-02-08T02:47:40;47.20;;;20.50;;
44662;SDS011;30381;52.754;18.258;2023-02-08T02:51:15;38.60;;;19.30;;
44662;SDS011;30381;52.754;18.258;2023-02-08T02:56:15;35.90;;;18.00;;
44662;SDS011;30381;52.754;18.258;2023-02-08T02:58:44;37.90;;;18.30;;
44662;SDS011;30381;52.754;18.258;2023-02-08T03:01:11;37.60;;;18.80;;
44662;SDS011;30381;52.754;18.258;2023-02-08T03:03:37;38.30;;;18.30;;
44662;SDS011;30381;52.754;18.258;2023-02-08T03:06:13;38.10;;;20.10;;
44662;SDS011;30381;52.754;18.258;2023-02-08T03:08:54;37.90;;;18.50;;
44662;SDS011;30381;52.754;18.258;2023-02-08T03:11:33;39.40;;;19.70;;
44662;SDS011;30381;52.754;18.258;2023-02-08T03:17:46;44.20;;;18.60;;
44662;SDS011;30381;52.754;18.258;2023-02-08T03:19:46;45.10;;;19.50;;
44662;SDS011;30381;52.754;18.258;2023-02-08T03:22:43;44.10;;;20.60;;
44662;SDS011;30381;52.754;18.258;2023-02-08T03:25:23;42.30;;;19.10;;
44662;SDS011;30381;52.754;18.258;2023-02-08T03:28:04;40.70;;;20.20;;
44662;SDS011;30381;52.754;18.258;2023-02-08T03:30:39;41.30;;;19.20;;
44662;SDS011;30381;52.754;18.258;2023-02-08T03:33:32;42.30;;;19.00;;
44662;SDS011;30381;52.754;18.258;2023-02-08T03:36:05;39.40;;;19.30;;
44662;SDS011;30381;52.754;18.258;2023-02-08T03:38:36;39.90;;;20.10;;
44662;SDS011;30381;52.754;18.258;2023-02-08T03:41:08;43.60;;;20.80;;
44662;SDS011;30381;52.754;18.258;2023-02-08T03:43:41;41.10;;;19.00;;
44662;SDS011;30381;52.754;18.258;2023-02-08T03:46:15;44.90;;;21.20;;
44662;SDS011;30381;52.754;18.258;2023-02-08T03:48:47;43.50;;;21.10;;
44662;SDS011;30381;52.754;18.258;2023-02-08T03:51:24;44.80;;;21.70;;
44662;SDS011;30381;52.754;18.258;2023-02-08T03:53:52;41.90;;;20.40;;
44662;SDS011;30381;52.754;18.258;2023-02-08T03:56:24;44.00;;;21.00;;
44662;SDS011;30381;52.754;18.258;2023-02-08T03:59:11;45.20;;;21.00;;
44662;SDS011;30381;52.754;18.258;2023-02-08T04:01:43;46.50;;;21.10;;
44662;SDS011;30381;52.754;18.258;2023-02-08T04:04:13;35.70;;;16.90;;
44662;SDS011;30381;52.754;18.258;2023-02-08T04:06:43;37.60;;;17.80;;
44662;SDS011;30381;52.754;18.258;2023-02-08T04:09:09;38.70;;;17.50;;
44662;SDS011;30381;52.754;18.258;2023-02-08T04:11:36;40.50;;;18.00;;
44662;SDS011;30381;52.754;18.258;2023-02-08T04:14:02;39.50;;;17.50;;
44662;SDS011;30381;52.754;18.258;2023-02-08T04:16:28;36.90;;;16.90;;
44662;SDS011;30381;52.754;18.258;2023-02-08T04:18:54;39.20;;;18.90;;
44662;SDS011;30381;52.754;18.258;2023-02-08T04:21:20;39.20;;;18.50;;
44662;SDS011;30381;52.754;18.258;2023-02-08T04:23:47;36.90;;;18.80;;
44662;SDS011;30381;52.754;18.258;2023-02-08T04:26:13;43.50;;;19.30;;
44662;SDS011;30381;52.754;18.258;2023-02-08T04:28:39;42.50;;;19.10;;
44662;SDS011;30381;52.754;18.258;2023-02-08T04:31:05;41.60;;;19.20;;
44662;SDS011;30381;52.754;18.258;2023-02-08T04:33:31;40.00;;;18.60;;
44662;SDS011;30381;52.754;18.258;2023-02-08T04:35:57;33.30;;;16.50;;
44662;SDS011;30381;52.754;18.258;2023-02-08T04:38:23;33.60;;;15.20;;
44662;SDS011;30381;52.754;18.258;2023-02-08T04:40:49;39.30;;;16.90;;
44662;SDS011;30381;52.754;18.258;2023-02-08T04:43:15;29.90;;;14.20;;
44662;SDS011;30381;52.754;18.258;2023-02-08T04:45:41;33.90;;;15.40;;
44662;SDS011;30381;52.754;18.258;2023-02-08T04:48:07;35.90;;;16.60;;
44662;SDS011;30381;52.754;18.258;2023-02-08T04:50:33;40.10;;;16.90;;
44662;SDS011;30381;52.754;18.258;2023-02-08T04:53:00;32.50;;;15.00;;
44662;SDS011;30381;52.754;18.258;2023-02-08T04:55:26;35.40;;;15.70;;
44662;SDS011;30381;52.754;18.258;2023-02-08T04:57:53;30.70;;;13.80;;
44662;SDS011;30381;52.754;18.258;2023-02-08T05:00:19;29.30;;;13.20;;
44662;SDS011;30381;52.754;18.258;2023-02-08T05:02:45;30.20;;;13.80;;
44662;SDS011;30381;52.754;18.258;2023-02-08T05:05:12;37.70;;;15.40;;
44662;SDS011;30381;52.754;18.258;2023-02-08T05:07:38;33.80;;;15.70;;
44662;SDS011;30381;52.754;18.258;2023-02-08T05:10:07;33.80;;;16.20;;
44662;SDS011;30381;52.754;18.258;2023-02-08T05:12:36;33.70;;;16.00;;
44662;SDS011;30381;52.754;18.258;2023-02-08T05:15:02;33.70;;;15.70;;
44662;SDS011;30381;52.754;18.258;2023-02-08T05:17:29;35.10;;;16.60;;
44662;SDS011;30381;52.754;18.258;2023-02-08T05:19:58;34.00;;;16.20;;
44662;SDS011;30381;52.754;18.258;2023-02-08T05:22:50;40.50;;;18.50;;
44662;SDS011;30381;52.754;18.258;2023-02-08T05:25:16;41.80;;;17.00;;
44662;SDS011;30381;52.754;18.258;2023-02-08T05:27:42;32.50;;;15.00;;
44662;SDS011;30381;52.754;18.258;2023-02-08T05:30:09;32.70;;;14.80;;
44662;SDS011;30381;52.754;18.258;2023-02-08T05:32:35;32.10;;;15.50;;
44662;SDS011;30381;52.754;18.258;2023-02-08T05:35:01;30.70;;;14.80;;
44662;SDS011;30381;52.754;18.258;2023-02-08T05:37:28;31.10;;;14.60;;
44662;SDS011;30381;52.754;18.258;2023-02-08T05:39:56;31.60;;;14.70;;
44662;SDS011;30381;52.754;18.258;2023-02-08T05:42:22;28.40;;;14.40;;
44662;SDS011;30381;52.754;18.258;2023-02-08T05:44:48;34.00;;;16.30;;
44662;SDS011;30381;52.754;18.258;2023-02-08T05:47:15;31.30;;;14.50;;
44662;SDS011;30381;52.754;18.258;2023-02-08T05:49:41;31.10;;;14.30;;
44662;SDS011;30381;52.754;18.258;2023-02-08T05:52:07;31.80;;;15.30;;
44662;SDS011;30381;52.754;18.258;2023-02-08T05:54:34;29.50;;;13.80;;
44662;SDS011;30381;52.754;18.258;2023-02-08T05:57:00;32.90;;;14.90;;
44662;SDS011;30381;52.754;18.258;2023-02-08T05:59:27;33.70;;;15.20;;
44662;SDS011;30381;52.754;18.258;2023-02-08T06:01:53;30.40;;;14.80;;
44662;SDS011;30381;52.754;18.258;2023-02-08T06:04:26;33.70;;;14.70;;
44662;SDS011;30381;52.754;18.258;2023-02-08T06:07:14;34.40;;;14.60;;
44662;SDS011;30381;52.754;18.258;2023-02-08T06:09:42;34.20;;;14.20;;
44662;SDS011;30381;52.754;18.258;2023-02-08T06:12:09;33.00;;;14.40;;
44662;SDS011;30381;52.754;18.258;2023-02-08T06:15:17;36.40;;;15.50;;
44662;SDS011;30381;52.754;18.258;2023-02-08T06:18:03;40.30;;;16.70;;
44662;SDS011;30381;52.754;18.258;2023-02-08T06:20:33;35.50;;;15.50;;
44662;SDS011;30381;52.754;18.258;2023-02-08T06:25:45;36.40;;;14.00;;
44662;SDS011;30381;52.754;18.258;2023-02-08T06:28:34;41.90;;;15.80;;
44662;SDS011;30381;52.754;18.258;2023-02-08T06:49:55;39.00;;;17.90;;
44662;SDS011;30381;52.754;18.258;2023-02-08T06:55:46;40.60;;;17.70;;
44662;SDS011;30381;52.754;18.258;2023-02-08T06:58:50;40.10;;;16.90;;
44662;SDS011;30381;52.754;18.258;2023-02-08T07:01:58;40.40;;;17.00;;
44662;SDS011;30381;52.754;18.258;2023-02-08T07:04:47;39.40;;;17.50;;
44662;SDS011;30381;52.754;18.258;2023-02-08T07:11:22;45.30;;;20.10;;
44662;SDS011;30381;52.754;18.258;2023-02-08T07:17:34;46.40;;;22.70;;
44662;SDS011;30381;52.754;18.258;2023-02-08T07:20:47;52.60;;;23.50;;
44662;SDS011;30381;52.754;18.258;2023-02-08T07:23:23;48.00;;;22.00;;
44662;SDS011;30381;52.754;18.258;2023-02-08T07:25:56;46.50;;;21.60;;
44662;SDS011;30381;52.754;18.258;2023-02-08T07:28:24;52.60;;;21.70;;
44662;SDS011;30381;52.754;18.258;2023-02-08T07:30:53;50.10;;;21.10;;
44662;SDS011;30381;52.754;18.258;2023-02-08T07:33:20;51.30;;;21.80;;
44662;SDS011;30381;52.754;18.258;2023-02-08T07:35:48;46.40;;;21.30;;
44662;SDS011;30381;52.754;18.258;2023-02-08T07:41:49;44.80;;;21.60;;
44662;SDS011;30381;52.754;18.258;2023-02-08T07:44:53;51.00;;;21.90;;
44662;SDS011;30381;52.754;18.258;2023-02-08T07:47:24;55.50;;;23.60;;
44662;SDS011;30381;52.754;18.258;2023-02-08T07:49:54;61.60;;;27.70;;
44662;SDS011;30381;52.754;18.258;2023-02-08T08:45:48;54.00;;;25.20;;
44662;SDS011;30381;52.754;18.258;2023-02-08T08:53:10;48.90;;;21.90;;
44662;SDS011;30381;52.754;18.258;2023-02-08T09:16:32;60.20;;;27.80;;
44662;SDS011;30381;52.754;18.258;2023-02-08T09:27:42;49.90;;;24.80;;
44662;SDS011;30381;52.754;18.258;2023-02-08T09:34:40;49.00;;;23.80;;
44662;SDS011;30381;52.754;18.258;2023-02-08T09:56:26;40.10;;;20.80;;
44662;SDS011;30381;52.754;18.258;2023-02-08T10:02:37;43.00;;;20.70;;
44662;SDS011;30381;52.754;18.258;2023-02-08T10:05:56;42.60;;;20.80;;
44662;SDS011;30381;52.754;18.258;2023-02-08T10:09:05;39.70;;;20.20;;
44662;SDS011;30381;52.754;18.258;2023-02-08T10:21:22;39.90;;;19.80;;
44662;SDS011;30381;52.754;18.258;2023-02-08T10:26:52;40.20;;;21.10;;
44662;SDS011;30381;52.754;18.258;2023-02-08T10:32:04;40.20;;;21.40;;
44662;SDS011;30381;52.754;18.258;2023-02-08T10:37:31;55.00;;;24.90;;
44662;SDS011;30381;52.754;18.258;2023-02-08T10:43:32;32.40;;;16.90;;
44662;SDS011;30381;52.754;18.258;2023-02-08T10:52:28;34.00;;;16.70;;
44662;SDS011;30381;52.754;18.258;2023-02-08T10:54:57;30.50;;;15.70;;
44662;SDS011;30381;52.754;18.258;2023-02-08T11:00:43;35.40;;;17.70;;
44662;SDS011;30381;52.754;18.258;2023-02-08T11:03:29;43.20;;;20.00;;
44662;SDS011;30381;52.754;18.258;2023-02-08T11:06:00;46.20;;;19.90;;
44662;SDS011;30381;52.754;18.258;2023-02-08T11:08:32;37.00;;;18.20;;
44662;SDS011;30381;52.754;18.258;2023-02-08T11:11:22;79.10;;;31.90;;
44662;SDS011;30381;52.754;18.258;2023-02-08T11:17:00;48.10;;;21.90;;
44662;SDS011;30381;52.754;18.258;2023-02-08T11:20:32;48.70;;;24.30;;
44662;SDS011;30381;52.754;18.258;2023-02-08T11:23:18;42.80;;;21.40;;
44662;SDS011;30381;52.754;18.258;2023-02-08T11:29:44;46.10;;;23.60;;
44662;SDS011;30381;52.754;18.258;2023-02-08T11:32:34;45.30;;;22.10;;
44662;SDS011;30381;52.754;18.258;2023-02-08T11:35:28;40.20;;;21.10;;
44662;SDS011;30381;52.754;18.258;2023-02-08T11:46:34;48.20;;;22.00;;
44662;SDS011;30381;52.754;18.258;2023-02-08T11:52:56;40.60;;;21.20;;
44662;SDS011;30381;52.754;18.258;2023-02-08T11:56:05;43.00;;;21.50;;
44662;SDS011;30381;52.754;18.258;2023-02-08T11:59:18;32.20;;;16.20;;
44662;SDS011;30381;52.754;18.258;2023-02-08T12:26:59;32.30;;;16.50;;
44662;SDS011;30381;52.754;18.258;2023-02-08T13:06:29;30.70;;;15.40;;
44662;SDS011;30381;52.754;18.258;2023-02-08T13:12:29;35.50;;;17.60;;
44662;SDS011;30381;52.754;18.258;2023-02-08T13:15:20;36.00;;;18.20;;
44662;SDS011;30381;52.754;18.258;2023-02-08T13:25:44;38.00;;;18.70;;
44662;SDS011;30381;52.754;18.258;2023-02-08T13:32:27;36.50;;;17.40;;
44662;SDS011;30381;52.754;18.258;2023-02-08T13:35:45;32.70;;;17.20;;
44662;SDS011;30381;52.754;18.258;2023-02-08T13:39:03;38.90;;;17.80;;
44662;SDS011;30381;52.754;18.258;2023-02-08T13:42:25;33.40;;;17.50;;
44662;SDS011;30381;52.754;18.258;2023-02-08T13:51:52;37.80;;;18.90;;
44662;SDS011;30381;52.754;18.258;2023-02-08T14:15:47;42.00;;;21.50;;
44662;SDS011;30381;52.754;18.258;2023-02-08T14:19:43;40.00;;;20.40;;
44662;SDS011;30381;52.754;18.258;2023-02-08T14:26:17;38.50;;;18.50;;
44662;SDS011;30381;52.754;18.258;2023-02-08T14:29:16;40.50;;;19.80;;
44662;SDS011;30381;52.754;18.258;2023-02-08T14:32:22;40.40;;;18.70;;
44662;SDS011;30381;52.754;18.258;2023-02-08T14:44:58;44.30;;;20.50;;
44662;SDS011;30381;52.754;18.258;2023-02-08T14:50:20;41.50;;;19.70;;
44662;SDS011;30381;52.754;18.258;2023-02-08T14:53:05;42.90;;;19.90;;
44662;SDS011;30381;52.754;18.258;2023-02-08T14:55:53;43.60;;;21.20;;
44662;SDS011;30381;52.754;18.258;2023-02-08T14:59:00;48.50;;;20.90;;
44662;SDS011;30381;52.754;18.258;2023-02-08T15:01:48;45.60;;;21.30;;
44662;SDS011;30381;52.754;18.258;2023-02-08T15:04:46;44.90;;;21.40;;
44662;SDS011;30381;52.754;18.258;2023-02-08T15:09:56;46.30;;;22.70;;
44662;SDS011;30381;52.754;18.258;2023-02-08T15:12:26;49.20;;;23.60;;
44662;SDS011;30381;52.754;18.258;2023-02-08T15:15:38;51.20;;;23.70;;
44662;SDS011;30381;52.754;18.258;2023-02-08T15:18:24;50.50;;;22.70;;
44662;SDS011;30381;52.754;18.258;2023-02-08T15:21:02;55.40;;;25.80;;
44662;SDS011;30381;52.754;18.258;2023-02-08T15:23:56;51.80;;;23.90;;
44662;SDS011;30381;52.754;18.258;2023-02-08T15:26:27;34.80;;;16.60;;
44662;SDS011;30381;52.754;18.258;2023-02-08T15:28:54;46.80;;;21.90;;
44662;SDS011;30381;52.754;18.258;2023-02-08T15:31:22;44.00;;;21.70;;
44662;SDS011;30381;52.754;18.258;2023-02-08T15:33:56;51.40;;;22.70;;
44662;SDS011;30381;52.754;18.258;2023-02-08T15:36:29;48.80;;;22.30;;
44662;SDS011;30381;52.754;18.258;2023-02-08T16:09:18;50.50;;;22.20;;
44662;SDS011;30381;52.754;18.258;2023-02-08T16:11:57;53.60;;;22.30;;
44662;SDS011;30381;52.754;18.258;2023-02-08T16:14:27;50.00;;;21.80;;
44662;SDS011;30381;52.754;18.258;2023-02-08T16:16:56;48.90;;;21.70;;
44662;SDS011;30381;52.754;18.258;2023-02-08T16:19:26;49.10;;;22.70;;
44662;SDS011;30381;52.754;18.258;2023-02-08T16:22:13;54.50;;;23.90;;
44662;SDS011;30381;52.754;18.258;2023-02-08T16:24:47;56.80;;;24.60;;
44662;SDS011;30381;52.754;18.258;2023-02-08T16:29:55;61.40;;;29.70;;
44662;SDS011;30381;52.754;18.258;2023-02-08T16:34:57;58.50;;;26.20;;
44662;SDS011;30381;52.754;18.258;2023-02-08T16:37:31;57.50;;;25.10;;
44662;SDS011;30381;52.754;18.258;2023-02-08T16:43:16;58.10;;;25.40;;
44662;SDS011;30381;52.754;18.258;2023-02-08T16:51:59;56.50;;;25.70;;
44662;SDS011;30381;52.754;18.258;2023-02-08T17:03:07;68.40;;;30.50;;
44662;SDS011;30381;52.754;18.258;2023-02-08T18:45:44;123.80;;;45.40;;
44662;SDS011;30381;52.754;18.258;2023-02-08T18:48:54;116.80;;;44.00;;
44662;SDS011;30381;52.754;18.258;2023-02-08T18:51:51;114.00;;;45.20;;
44662;SDS011;30381;52.754;18.258;2023-02-08T18:54:23;103.70;;;43.20;;
44662;SDS011;30381;52.754;18.258;2023-02-08T18:56:50;114.40;;;47.10;;
44662;SDS011;30381;52.754;18.258;2023-02-08T18:59:59;111.00;;;44.00;;
44662;SDS011;30381;52.754;18.258;2023-02-08T19:02:37;136.40;;;51.50;;
44662;SDS011;30381;52.754;18.258;2023-02-08T19:05:25;130.90;;;51.00;;
44662;SDS011;30381;52.754;18.258;2023-02-08T19:08:02;123.50;;;49.20;;
44662;SDS011;30381;52.754;18.258;2023-02-08T19:10:46;123.00;;;49.30;;
44662;SDS011;30381;52.754;18.258;2023-02-08T19:13:12;123.40;;;48.30;;
44662;SDS011;30381;52.754;18.258;2023-02-08T19:15:50;135.80;;;50.20;;
44662;SDS011;30381;52.754;18.258;2023-02-08T19:18:31;184.90;;;63.90;;
44662;SDS011;30381;52.754;18.258;2023-02-08T19:21:09;212.60;;;72.80;;
44662;SDS011;30381;52.754;18.258;2023-02-08T19:24:11;194.50;;;67.80;;
44662;SDS011;30381;52.754;18.258;2023-02-08T19:26:54;153.20;;;60.40;;
44662;SDS011;30381;52.754;18.258;2023-02-08T19:29:27;137.50;;;53.90;;
44662;SDS011;30381;52.754;18.258;2023-02-08T19:35:15;117.00;;;46.50;;
44662;SDS011;30381;52.754;18.258;2023-02-08T19:38:33;121.10;;;47.00;;
44662;SDS011;30381;52.754;18.258;2023-02-08T19:41:00;116.00;;;51.30;;
44662;SDS011;30381;52.754;18.258;2023-02-08T19:43:26;120.80;;;47.20;;
44662;SDS011;30381;52.754;18.258;2023-02-08T19:45:55;117.70;;;47.80;;
44662;SDS011;30381;52.754;18.258;2023-02-08T19:48:22;112.60;;;47.00;;
44662;SDS011;30381;52.754;18.258;2023-02-08T19:50:57;118.20;;;46.90;;
44662;SDS011;30381;52.754;18.258;2023-02-08T19:53:25;133.00;;;53.30;;
44662;SDS011;30381;52.754;18.258;2023-02-08T19:56:20;117.40;;;48.50;;
44662;SDS011;30381;52.754;18.258;2023-02-08T19:59:07;121.00;;;47.10;;
44662;SDS011;30381;52.754;18.258;2023-02-08T20:01:41;130.40;;;50.00;;
44662;SDS011;30381;52.754;18.258;2023-02-08T20:04:14;134.60;;;51.40;;
44662;SDS011;30381;52.754;18.258;2023-02-08T20:06:55;152.10;;;57.60;;
44662;SDS011;30381;52.754;18.258;2023-02-08T20:10:16;143.60;;;60.00;;
44662;SDS011;30381;52.754;18.258;2023-02-08T20:12:54;146.70;;;57.30;;
44662;SDS011;30381;52.754;18.258;2023-02-08T20:15:48;138.70;;;53.20;;
44662;SDS011;30381;52.754;18.258;2023-02-08T20:18:32;139.90;;;55.30;;
44662;SDS011;30381;52.754;18.258;2023-02-08T20:20:59;143.70;;;54.80;;
44662;SDS011;30381;52.754;18.258;2023-02-08T20:23:28;144.60;;;56.30;;
44662;SDS011;30381;52.754;18.258;2023-02-08T20:26:06;153.90;;;60.80;;
44662;SDS011;30381;52.754;18.258;2023-02-08T20:28:35;172.50;;;65.30;;
44662;SDS011;30381;52.754;18.258;2023-02-08T20:31:10;189.10;;;72.00;;
44662;SDS011;30381;52.754;18.258;2023-02-08T20:33:39;198.40;;;71.10;;
44662;SDS011;30381;52.754;18.258;2023-02-08T20:36:06;213.00;;;77.10;;
44662;SDS011;30381;52.754;18.258;2023-02-08T20:38:34;213.40;;;73.60;;
44662;SDS011;30381;52.754;18.258;2023-02-08T20:41:05;210.30;;;77.60;;
44662;SDS011;30381;52.754;18.258;2023-02-08T20:43:33;205.90;;;72.40;;
44662;SDS011;30381;52.754;18.258;2023-02-08T20:46:00;210.60;;;77.20;;
44662;SDS011;30381;52.754;18.258;2023-02-08T20:48:30;216.00;;;75.80;;
44662;SDS011;30381;52.754;18.258;2023-02-08T20:51:06;223.00;;;79.50;;
44662;SDS011;30381;52.754;18.258;2023-02-08T20:53:36;210.20;;;76.30;;
44662;SDS011;30381;52.754;18.258;2023-02-08T20:56:08;211.40;;;77.20;;
44662;SDS011;30381;52.754;18.258;2023-02-08T20:58:40;242.30;;;81.80;;
44662;SDS011;30381;52.754;18.258;2023-02-08T21:01:07;229.60;;;81.80;;
44662;SDS011;30381;52.754;18.258;2023-02-08T21:03:35;210.10;;;74.10;;
44662;SDS011;30381;52.754;18.258;2023-02-08T21:06:09;209.70;;;95.60;;
44662;SDS011;30381;52.754;18.258;2023-02-08T21:08:39;233.20;;;84.10;;
44662;SDS011;30381;52.754;18.258;2023-02-08T21:11:06;206.30;;;78.70;;
44662;SDS011;30381;52.754;18.258;2023-02-08T21:13:32;204.50;;;76.00;;
44662;SDS011;30381;52.754;18.258;2023-02-08T21:15:58;205.20;;;74.80;;
44662;SDS011;30381;52.754;18.258;2023-02-08T21:18:24;201.80;;;74.70;;
44662;SDS011;30381;52.754;18.258;2023-02-08T21:20:50;221.00;;;78.90;;
44662;SDS011;30381;52.754;18.258;2023-02-08T21:23:16;189.90;;;74.30;;
44662;SDS011;30381;52.754;18.258;2023-02-08T21:25:42;196.60;;;70.80;;
44662;SDS011;30381;52.754;18.258;2023-02-08T21:28:10;200.50;;;73.50;;
44662;SDS011;30381;52.754;18.258;2023-02-08T21:30:37;187.60;;;69.60;;
44662;SDS011;30381;52.754;18.258;2023-02-08T21:33:04;175.20;;;64.90;;
44662;SDS011;30381;52.754;18.258;2023-02-08T21:35:33;189.10;;;65.50;;
44662;SDS011;30381;52.754;18.258;2023-02-08T21:38:02;169.00;;;64.30;;
44662;SDS011;30381;52.754;18.258;2023-02-08T21:40:31;176.10;;;61.80;;
44662;SDS011;30381;52.754;18.258;2023-02-08T21:42:57;161.20;;;61.00;;
44662;SDS011;30381;52.754;18.258;2023-02-08T21:45:24;167.10;;;60.20;;
44662;SDS011;30381;52.754;18.258;2023-02-08T21:47:50;153.00;;;58.90;;
44662;SDS011;30381;52.754;18.258;2023-02-08T21:50:16;180.90;;;62.70;;
44662;SDS011;30381;52.754;18.258;2023-02-08T21:53:01;156.80;;;60.30;;
44662;SDS011;30381;52.754;18.258;2023-02-08T21:55:46;160.40;;;59.10;;
44662;SDS011;30381;52.754;18.258;2023-02-08T21:58:12;171.30;;;59.30;;
44662;SDS011;30381;52.754;18.258;2023-02-08T22:00:39;171.70;;;57.00;;
44662;SDS011;30381;52.754;18.258;2023-02-08T22:03:07;179.40;;;61.70;;
44662;SDS011;30381;52.754;18.258;2023-02-08T22:05:33;172.70;;;58.10;;
44662;SDS011;30381;52.754;18.258;2023-02-08T22:08:18;178.60;;;61.20;;
44662;SDS011;30381;52.754;18.258;2023-02-08T22:10:44;178.70;;;63.00;;
44662;SDS011;30381;52.754;18.258;2023-02-08T22:13:11;180.30;;;63.30;;
44662;SDS011;30381;52.754;18.258;2023-02-08T22:15:37;168.30;;;62.20;;
44662;SDS011;30381;52.754;18.258;2023-02-08T22:18:04;170.20;;;59.90;;
44662;SDS011;30381;52.754;18.258;2023-02-08T22:20:31;170.10;;;61.00;;
44662;SDS011;30381;52.754;18.258;2023-02-08T22:22:57;173.40;;;63.70;;
44662;SDS011;30381;52.754;18.258;2023-02-08T22:25:24;163.20;;;57.90;;
44662;SDS011;30381;52.754;18.258;2023-02-08T22:27:50;152.70;;;58.80;;
44662;SDS011;30381;52.754;18.258;2023-02-08T22:30:17;148.60;;;53.70;;
44662;SDS011;30381;52.754;18.258;2023-02-08T22:32:44;152.00;;;53.60;;
44662;SDS011;30381;52.754;18.258;2023-02-08T22:35:15;145.90;;;52.60;;
44662;SDS011;30381;52.754;18.258;2023-02-08T22:37:43;139.40;;;54.70;;
44662;SDS011;30381;52.754;18.258;2023-02-08T22:40:09;156.40;;;55.80;;
44662;SDS011;30381;52.754;18.258;2023-02-08T22:42:38;145.40;;;51.70;;
44662;SDS011;30381;52.754;18.258;2023-02-08T22:45:06;139.60;;;50.80;;
44662;SDS011;30381;52.754;18.258;2023-02-08T22:47:34;139.50;;;50.20;;
44662;SDS011;30381;52.754;18.258;2023-02-08T22:50:01;132.00;;;52.40;;
44662;SDS011;30381;52.754;18.258;2023-02-08T22:52:29;138.90;;;49.80;;
44662;SDS011;30381;52.754;18.258;2023-02-08T22:54:59;137.60;;;52.40;;
44662;SDS011;30381;52.754;18.258;2023-02-08T22:57:32;121.00;;;48.20;;
44662;SDS011;30381;52.754;18.258;2023-02-08T22:59:59;128.30;;;48.50;;
44662;SDS011;30381;52.754;18.258;2023-02-08T23:02:28;141.10;;;50.90;;
44662;SDS011;30381;52.754;18.258;2023-02-08T23:04:54;135.20;;;50.60;;
44662;SDS011;30381;52.754;18.258;2023-02-08T23:07:20;140.90;;;52.10;;
44662;SDS011;30381;52.754;18.258;2023-02-08T23:09:46;146.70;;;56.40;;
44662;SDS011;30381;52.754;18.258;2023-02-08T23:12:18;153.20;;;53.80;;
44662;SDS011;30381;52.754;18.258;2023-02-08T23:14:45;144.80;;;52.30;;
44662;SDS011;30381;52.754;18.258;2023-02-08T23:17:14;145.40;;;51.40;;